Baker Hill, Alabama
Current Conditions -  °F | °C
As of 11:58 PM on Saturday 20 Dec 2014 (Local Time) from KEUF Reporting Station
Overcast Overcast  
Wind Chill: 53°   Ceiling: 1000
Heat Index: 53°   Visibility: 9mi
Dew Point: 50°   Wind: 0mph
Humidity: 89%   Direction: NA
Pressure: 30.15"   Gusts: NA
Location:  31.7867°N, 85.2397°W
Report Text: KEUF 210558Z AUTO 00000KT 9SM OVC010 12/10 A3015 RMK AO2 SLP209 60000 T01170100 10117 20111 401220083 58002
Loading
Personal Weather Stations






























Interactive Weather Map New forecast layout! Learn more

10-Day Weather Forecast

Advertisements
Track Severe Weather on mobile